sensor_id;sensor_type;location;lat;lon;timestamp;P1;durP1;ratioP1;P2;durP2;ratioP2
52208;SDS011;38507;53.132;6.394;2024-01-30T00:01:41;23.52;;;16.05;;
52208;SDS011;38507;53.132;6.394;2024-01-30T00:04:07;23.15;;;16.15;;
52208;SDS011;38507;53.132;6.394;2024-01-30T00:06:33;24.63;;;16.40;;
52208;SDS011;38507;53.132;6.394;2024-01-30T00:08:58;20.98;;;15.85;;
52208;SDS011;38507;53.132;6.394;2024-01-30T00:11:24;24.15;;;16.55;;
52208;SDS011;38507;53.132;6.394;2024-01-30T00:13:53;23.52;;;15.43;;
52208;SDS011;38507;53.132;6.394;2024-01-30T00:16:21;25.05;;;16.65;;
52208;SDS011;38507;53.132;6.394;2024-01-30T00:18:49;23.83;;;16.77;;
52208;SDS011;38507;53.132;6.394;2024-01-30T00:21:15;25.33;;;15.65;;
52208;SDS011;38507;53.132;6.394;2024-01-30T00:23:41;26.30;;;15.98;;
52208;SDS011;38507;53.132;6.394;2024-01-30T00:26:06;23.17;;;16.60;;
52208;SDS011;38507;53.132;6.394;2024-01-30T00:28:32;24.90;;;17.55;;
52208;SDS011;38507;53.132;6.394;2024-01-30T00:30:58;28.27;;;16.85;;
52208;SDS011;38507;53.132;6.394;2024-01-30T00:33:23;24.33;;;16.05;;
52208;SDS011;38507;53.132;6.394;2024-01-30T00:35:49;25.95;;;16.73;;
52208;SDS011;38507;53.132;6.394;2024-01-30T00:38:14;28.60;;;16.88;;
52208;SDS011;38507;53.132;6.394;2024-01-30T00:40:40;26.35;;;17.95;;
52208;SDS011;38507;53.132;6.394;2024-01-30T00:43:06;24.80;;;16.30;;
52208;SDS011;38507;53.132;6.394;2024-01-30T00:45:32;25.15;;;16.75;;
52208;SDS011;38507;53.132;6.394;2024-01-30T00:47:59;27.45;;;18.20;;
52208;SDS011;38507;53.132;6.394;2024-01-30T00:50:24;26.08;;;17.50;;
52208;SDS011;38507;53.132;6.394;2024-01-30T00:52:50;24.42;;;16.58;;
52208;SDS011;38507;53.132;6.394;2024-01-30T00:55:16;28.50;;;17.55;;
52208;SDS011;38507;53.132;6.394;2024-01-30T00:57:41;26.25;;;17.23;;
52208;SDS011;38507;53.132;6.394;2024-01-30T01:00:07;24.63;;;17.00;;
52208;SDS011;38507;53.132;6.394;2024-01-30T01:02:34;26.52;;;17.48;;
52208;SDS011;38507;53.132;6.394;2024-01-30T01:05:00;24.65;;;17.27;;
52208;SDS011;38507;53.132;6.394;2024-01-30T01:07:26;26.60;;;17.55;;
52208;SDS011;38507;53.132;6.394;2024-01-30T01:09:52;30.05;;;17.80;;
52208;SDS011;38507;53.132;6.394;2024-01-30T01:12:17;25.27;;;16.42;;
52208;SDS011;38507;53.132;6.394;2024-01-30T01:14:43;30.55;;;18.30;;
52208;SDS011;38507;53.132;6.394;2024-01-30T01:17:09;26.83;;;18.02;;
52208;SDS011;38507;53.132;6.394;2024-01-30T01:19:34;27.35;;;18.40;;
52208;SDS011;38507;53.132;6.394;2024-01-30T01:22:00;23.95;;;17.10;;
52208;SDS011;38507;53.132;6.394;2024-01-30T01:24:25;26.15;;;16.83;;
52208;SDS011;38507;53.132;6.394;2024-01-30T01:26:51;24.75;;;17.25;;
52208;SDS011;38507;53.132;6.394;2024-01-30T01:29:17;29.52;;;18.08;;
52208;SDS011;38507;53.132;6.394;2024-01-30T01:31:42;26.15;;;17.67;;
52208;SDS011;38507;53.132;6.394;2024-01-30T01:34:12;30.98;;;19.30;;
52208;SDS011;38507;53.132;6.394;2024-01-30T01:36:38;26.02;;;17.73;;
52208;SDS011;38507;53.132;6.394;2024-01-30T01:39:04;30.23;;;18.17;;
52208;SDS011;38507;53.132;6.394;2024-01-30T01:41:30;24.27;;;17.42;;
52208;SDS011;38507;53.132;6.394;2024-01-30T01:43:59;29.23;;;18.40;;
52208;SDS011;38507;53.132;6.394;2024-01-30T01:46:29;30.20;;;19.10;;
52208;SDS011;38507;53.132;6.394;2024-01-30T01:48:57;24.27;;;17.33;;
52208;SDS011;38507;53.132;6.394;2024-01-30T01:51:24;27.77;;;18.23;;
52208;SDS011;38507;53.132;6.394;2024-01-30T01:53:52;28.85;;;17.00;;
52208;SDS011;38507;53.132;6.394;2024-01-30T01:56:19;27.92;;;18.25;;
52208;SDS011;38507;53.132;6.394;2024-01-30T01:58:46;25.52;;;18.52;;
52208;SDS011;38507;53.132;6.394;2024-01-30T02:01:14;28.27;;;17.52;;
52208;SDS011;38507;53.132;6.394;2024-01-30T02:03:45;30.52;;;19.05;;
52208;SDS011;38507;53.132;6.394;2024-01-30T02:06:11;30.33;;;18.67;;
52208;SDS011;38507;53.132;6.394;2024-01-30T02:08:38;31.48;;;18.42;;
52208;SDS011;38507;53.132;6.394;2024-01-30T02:11:04;24.98;;;17.88;;
52208;SDS011;38507;53.132;6.394;2024-01-30T02:13:30;24.98;;;18.42;;
52208;SDS011;38507;53.132;6.394;2024-01-30T02:15:56;27.27;;;17.60;;
52208;SDS011;38507;53.132;6.394;2024-01-30T02:18:22;27.30;;;18.92;;
52208;SDS011;38507;53.132;6.394;2024-01-30T02:20:47;28.35;;;17.65;;
52208;SDS011;38507;53.132;6.394;2024-01-30T02:23:15;25.63;;;18.10;;
52208;SDS011;38507;53.132;6.394;2024-01-30T02:25:41;27.77;;;18.00;;
52208;SDS011;38507;53.132;6.394;2024-01-30T02:28:11;24.15;;;18.00;;
52208;SDS011;38507;53.132;6.394;2024-01-30T02:30:37;24.30;;;18.83;;
52208;SDS011;38507;53.132;6.394;2024-01-30T02:33:09;29.90;;;17.98;;
52208;SDS011;38507;53.132;6.394;2024-01-30T02:35:35;25.52;;;18.48;;
52208;SDS011;38507;53.132;6.394;2024-01-30T02:38:01;31.05;;;19.25;;
52208;SDS011;38507;53.132;6.394;2024-01-30T02:40:27;27.55;;;18.63;;
52208;SDS011;38507;53.132;6.394;2024-01-30T02:42:52;26.45;;;17.73;;
52208;SDS011;38507;53.132;6.394;2024-01-30T02:45:18;25.00;;;17.17;;
52208;SDS011;38507;53.132;6.394;2024-01-30T02:47:44;30.98;;;18.50;;
52208;SDS011;38507;53.132;6.394;2024-01-30T02:50:10;27.73;;;17.73;;
52208;SDS011;38507;53.132;6.394;2024-01-30T02:52:36;26.48;;;17.88;;
52208;SDS011;38507;53.132;6.394;2024-01-30T02:55:01;22.75;;;17.20;;
52208;SDS011;38507;53.132;6.394;2024-01-30T02:57:28;28.50;;;17.52;;
52208;SDS011;38507;53.132;6.394;2024-01-30T02:59:54;31.38;;;18.90;;
52208;SDS011;38507;53.132;6.394;2024-01-30T03:02:19;26.35;;;18.65;;
52208;SDS011;38507;53.132;6.394;2024-01-30T03:04:45;26.23;;;17.95;;
52208;SDS011;38507;53.132;6.394;2024-01-30T03:07:11;25.98;;;16.77;;
52208;SDS011;38507;53.132;6.394;2024-01-30T03:09:37;25.92;;;17.65;;
52208;SDS011;38507;53.132;6.394;2024-01-30T03:12:03;27.38;;;18.25;;
52208;SDS011;38507;53.132;6.394;2024-01-30T03:14:32;25.45;;;18.50;;
52208;SDS011;38507;53.132;6.394;2024-01-30T03:16:58;26.67;;;18.15;;
52208;SDS011;38507;53.132;6.394;2024-01-30T03:19:23;25.95;;;17.20;;
52208;SDS011;38507;53.132;6.394;2024-01-30T03:21:49;27.08;;;17.30;;
52208;SDS011;38507;53.132;6.394;2024-01-30T03:24:16;27.35;;;17.55;;
52208;SDS011;38507;53.132;6.394;2024-01-30T03:26:42;29.55;;;18.08;;
52208;SDS011;38507;53.132;6.394;2024-01-30T03:29:08;23.33;;;17.08;;
52208;SDS011;38507;53.132;6.394;2024-01-30T03:31:33;26.08;;;17.77;;
52208;SDS011;38507;53.132;6.394;2024-01-30T03:33:59;25.58;;;17.38;;
52208;SDS011;38507;53.132;6.394;2024-01-30T03:36:26;26.55;;;17.33;;
52208;SDS011;38507;53.132;6.394;2024-01-30T03:38:52;22.00;;;16.23;;
52208;SDS011;38507;53.132;6.394;2024-01-30T03:41:17;27.20;;;17.90;;
52208;SDS011;38507;53.132;6.394;2024-01-30T03:43:43;23.73;;;16.80;;
52208;SDS011;38507;53.132;6.394;2024-01-30T03:46:08;25.60;;;16.63;;
52208;SDS011;38507;53.132;6.394;2024-01-30T03:48:36;28.80;;;17.77;;
52208;SDS011;38507;53.132;6.394;2024-01-30T03:51:02;23.35;;;16.08;;
52208;SDS011;38507;53.132;6.394;2024-01-30T03:53:28;25.60;;;17.00;;
52208;SDS011;38507;53.132;6.394;2024-01-30T03:55:53;25.73;;;17.42;;
52208;SDS011;38507;53.132;6.394;2024-01-30T03:58:19;26.80;;;17.83;;
52208;SDS011;38507;53.132;6.394;2024-01-30T04:00:45;25.85;;;17.17;;
52208;SDS011;38507;53.132;6.394;2024-01-30T04:03:10;25.10;;;17.30;;
52208;SDS011;38507;53.132;6.394;2024-01-30T04:05:36;23.15;;;16.45;;
52208;SDS011;38507;53.132;6.394;2024-01-30T04:08:02;25.63;;;17.15;;
52208;SDS011;38507;53.132;6.394;2024-01-30T04:10:27;22.60;;;16.60;;
52208;SDS011;38507;53.132;6.394;2024-01-30T04:12:53;25.00;;;17.08;;
52208;SDS011;38507;53.132;6.394;2024-01-30T04:15:19;22.92;;;15.38;;
52208;SDS011;38507;53.132;6.394;2024-01-30T04:17:44;23.52;;;16.48;;
52208;SDS011;38507;53.132;6.394;2024-01-30T04:20:14;24.38;;;16.35;;
52208;SDS011;38507;53.132;6.394;2024-01-30T04:22:41;22.30;;;15.57;;
52208;SDS011;38507;53.132;6.394;2024-01-30T04:25:11;23.42;;;16.70;;
52208;SDS011;38507;53.132;6.394;2024-01-30T04:27:37;23.55;;;15.95;;
52208;SDS011;38507;53.132;6.394;2024-01-30T04:30:03;22.75;;;16.20;;
52208;SDS011;38507;53.132;6.394;2024-01-30T04:32:29;23.42;;;16.20;;
52208;SDS011;38507;53.132;6.394;2024-01-30T04:34:54;23.40;;;15.50;;
52208;SDS011;38507;53.132;6.394;2024-01-30T04:37:20;24.75;;;16.15;;
52208;SDS011;38507;53.132;6.394;2024-01-30T04:39:46;21.75;;;14.80;;
52208;SDS011;38507;53.132;6.394;2024-01-30T04:42:11;23.65;;;16.98;;
52208;SDS011;38507;53.132;6.394;2024-01-30T04:44:37;26.23;;;16.45;;
52208;SDS011;38507;53.132;6.394;2024-01-30T04:47:03;20.63;;;15.10;;
52208;SDS011;38507;53.132;6.394;2024-01-30T04:49:31;21.92;;;13.80;;
52208;SDS011;38507;53.132;6.394;2024-01-30T04:51:56;22.67;;;13.98;;
52208;SDS011;38507;53.132;6.394;2024-01-30T04:54:22;23.48;;;15.57;;
52208;SDS011;38507;53.132;6.394;2024-01-30T04:56:48;22.08;;;15.38;;
52208;SDS011;38507;53.132;6.394;2024-01-30T04:59:14;21.02;;;14.80;;
52208;SDS011;38507;53.132;6.394;2024-01-30T05:01:39;25.52;;;15.50;;
52208;SDS011;38507;53.132;6.394;2024-01-30T05:04:07;23.17;;;15.23;;
52208;SDS011;38507;53.132;6.394;2024-01-30T05:06:33;24.85;;;15.43;;
52208;SDS011;38507;53.132;6.394;2024-01-30T05:08:58;20.88;;;14.85;;
52208;SDS011;38507;53.132;6.394;2024-01-30T05:11:24;22.73;;;14.98;;
52208;SDS011;38507;53.132;6.394;2024-01-30T05:13:49;22.48;;;14.88;;
52208;SDS011;38507;53.132;6.394;2024-01-30T05:16:15;23.10;;;15.30;;
52208;SDS011;38507;53.132;6.394;2024-01-30T05:18:41;25.33;;;14.52;;
52208;SDS011;38507;53.132;6.394;2024-01-30T05:21:06;26.75;;;13.77;;
52208;SDS011;38507;53.132;6.394;2024-01-30T05:23:32;20.98;;;14.48;;
52208;SDS011;38507;53.132;6.394;2024-01-30T05:25:57;25.17;;;14.65;;
52208;SDS011;38507;53.132;6.394;2024-01-30T05:28:25;21.38;;;13.68;;
52208;SDS011;38507;53.132;6.394;2024-01-30T05:30:51;22.02;;;13.60;;
52208;SDS011;38507;53.132;6.394;2024-01-30T05:33:17;22.42;;;15.25;;
52208;SDS011;38507;53.132;6.394;2024-01-30T05:35:43;23.10;;;14.63;;
52208;SDS011;38507;53.132;6.394;2024-01-30T05:38:08;21.52;;;14.38;;
52208;SDS011;38507;53.132;6.394;2024-01-30T05:40:34;18.20;;;14.05;;
52208;SDS011;38507;53.132;6.394;2024-01-30T05:42:59;23.67;;;14.23;;
52208;SDS011;38507;53.132;6.394;2024-01-30T05:45:27;20.75;;;13.55;;
52208;SDS011;38507;53.132;6.394;2024-01-30T05:47:53;21.80;;;13.48;;
52208;SDS011;38507;53.132;6.394;2024-01-30T05:50:19;21.58;;;14.10;;
52208;SDS011;38507;53.132;6.394;2024-01-30T05:52:45;19.75;;;13.73;;
52208;SDS011;38507;53.132;6.394;2024-01-30T05:55:11;23.40;;;14.75;;
52208;SDS011;38507;53.132;6.394;2024-01-30T05:57:37;20.67;;;13.80;;
52208;SDS011;38507;53.132;6.394;2024-01-30T06:00:06;23.33;;;14.43;;
52208;SDS011;38507;53.132;6.394;2024-01-30T06:02:32;24.83;;;14.48;;
52208;SDS011;38507;53.132;6.394;2024-01-30T06:04:58;22.63;;;14.40;;
52208;SDS011;38507;53.132;6.394;2024-01-30T06:07:24;19.65;;;13.73;;
52208;SDS011;38507;53.132;6.394;2024-01-30T06:09:49;18.25;;;13.52;;
52208;SDS011;38507;53.132;6.394;2024-01-30T06:12:15;20.15;;;14.25;;
52208;SDS011;38507;53.132;6.394;2024-01-30T06:14:40;18.08;;;13.18;;
52208;SDS011;38507;53.132;6.394;2024-01-30T06:17:07;22.48;;;13.50;;
52208;SDS011;38507;53.132;6.394;2024-01-30T06:19:33;20.42;;;14.25;;
52208;SDS011;38507;53.132;6.394;2024-01-30T06:21:59;18.85;;;13.18;;
52208;SDS011;38507;53.132;6.394;2024-01-30T06:24:25;18.42;;;13.02;;
52208;SDS011;38507;53.132;6.394;2024-01-30T06:26:52;18.77;;;12.63;;
52208;SDS011;38507;53.132;6.394;2024-01-30T06:29:18;19.00;;;13.00;;
52208;SDS011;38507;53.132;6.394;2024-01-30T06:31:44;26.23;;;13.25;;
52208;SDS011;38507;53.132;6.394;2024-01-30T06:34:09;20.23;;;12.68;;
52208;SDS011;38507;53.132;6.394;2024-01-30T06:36:37;21.80;;;13.25;;
52208;SDS011;38507;53.132;6.394;2024-01-30T06:39:02;17.98;;;12.70;;
52208;SDS011;38507;53.132;6.394;2024-01-30T06:41:28;19.45;;;12.88;;
52208;SDS011;38507;53.132;6.394;2024-01-30T06:43:55;18.95;;;12.90;;
52208;SDS011;38507;53.132;6.394;2024-01-30T06:46:21;18.83;;;12.50;;
52208;SDS011;38507;53.132;6.394;2024-01-30T06:48:46;20.10;;;13.10;;
52208;SDS011;38507;53.132;6.394;2024-01-30T06:51:12;22.00;;;13.25;;
52208;SDS011;38507;53.132;6.394;2024-01-30T06:53:38;17.60;;;13.00;;
52208;SDS011;38507;53.132;6.394;2024-01-30T06:56:03;18.52;;;12.98;;
52208;SDS011;38507;53.132;6.394;2024-01-30T06:58:30;17.65;;;12.25;;
52208;SDS011;38507;53.132;6.394;2024-01-30T07:00:56;21.83;;;13.00;;
52208;SDS011;38507;53.132;6.394;2024-01-30T07:03:21;17.52;;;12.88;;
52208;SDS011;38507;53.132;6.394;2024-01-30T07:05:47;21.98;;;13.18;;
52208;SDS011;38507;53.132;6.394;2024-01-30T07:08:14;17.38;;;12.63;;
52208;SDS011;38507;53.132;6.394;2024-01-30T07:10:42;22.40;;;12.85;;
52208;SDS011;38507;53.132;6.394;2024-01-30T07:13:08;17.13;;;11.95;;
52208;SDS011;38507;53.132;6.394;2024-01-30T07:15:35;20.83;;;13.27;;
52208;SDS011;38507;53.132;6.394;2024-01-30T07:18:01;18.17;;;12.55;;
52208;SDS011;38507;53.132;6.394;2024-01-30T07:20:27;19.30;;;12.38;;
52208;SDS011;38507;53.132;6.394;2024-01-30T07:22:55;20.48;;;12.45;;
52208;SDS011;38507;53.132;6.394;2024-01-30T07:25:21;20.48;;;12.98;;
52208;SDS011;38507;53.132;6.394;2024-01-30T07:27:51;19.77;;;13.18;;
52208;SDS011;38507;53.132;6.394;2024-01-30T07:30:20;18.13;;;12.18;;
52208;SDS011;38507;53.132;6.394;2024-01-30T07:32:46;17.98;;;13.00;;
52208;SDS011;38507;53.132;6.394;2024-01-30T07:35:12;20.48;;;12.82;;
52208;SDS011;38507;53.132;6.394;2024-01-30T07:37:38;18.95;;;12.35;;
52208;SDS011;38507;53.132;6.394;2024-01-30T07:40:04;19.20;;;13.07;;
52208;SDS011;38507;53.132;6.394;2024-01-30T07:42:31;18.92;;;12.68;;
52208;SDS011;38507;53.132;6.394;2024-01-30T07:44:57;21.55;;;12.43;;
52208;SDS011;38507;53.132;6.394;2024-01-30T07:47:23;18.25;;;12.75;;
52208;SDS011;38507;53.132;6.394;2024-01-30T07:49:49;18.95;;;13.13;;
52208;SDS011;38507;53.132;6.394;2024-01-30T07:52:14;19.33;;;12.65;;
52208;SDS011;38507;53.132;6.394;2024-01-30T07:54:49;17.80;;;12.55;;
52208;SDS011;38507;53.132;6.394;2024-01-30T07:57:16;24.35;;;12.68;;
52208;SDS011;38507;53.132;6.394;2024-01-30T07:59:45;19.70;;;12.00;;
52208;SDS011;38507;53.132;6.394;2024-01-30T08:02:11;17.25;;;12.00;;
52208;SDS011;38507;53.132;6.394;2024-01-30T08:04:38;16.55;;;11.43;;
52208;SDS011;38507;53.132;6.394;2024-01-30T08:07:03;18.95;;;12.90;;
52208;SDS011;38507;53.132;6.394;2024-01-30T08:09:29;17.80;;;12.15;;
52208;SDS011;38507;53.132;6.394;2024-01-30T08:11:55;22.25;;;11.02;;
52208;SDS011;38507;53.132;6.394;2024-01-30T08:14:20;20.23;;;12.77;;
52208;SDS011;38507;53.132;6.394;2024-01-30T08:16:46;19.45;;;11.32;;
52208;SDS011;38507;53.132;6.394;2024-01-30T08:19:11;26.40;;;11.52;;
52208;SDS011;38507;53.132;6.394;2024-01-30T08:21:37;17.80;;;12.00;;
52208;SDS011;38507;53.132;6.394;2024-01-30T08:24:03;17.70;;;11.65;;
52208;SDS011;38507;53.132;6.394;2024-01-30T08:26:29;18.00;;;11.68;;
52208;SDS011;38507;53.132;6.394;2024-01-30T08:28:56;20.25;;;11.27;;
52208;SDS011;38507;53.132;6.394;2024-01-30T08:31:22;18.75;;;11.23;;
52208;SDS011;38507;53.132;6.394;2024-01-30T08:33:47;20.67;;;12.45;;
52208;SDS011;38507;53.132;6.394;2024-01-30T08:36:13;16.20;;;10.90;;
52208;SDS011;38507;53.132;6.394;2024-01-30T08:38:40;17.73;;;11.20;;
52208;SDS011;38507;53.132;6.394;2024-01-30T08:41:07;17.48;;;11.48;;
52208;SDS011;38507;53.132;6.394;2024-01-30T08:43:33;16.70;;;10.95;;
52208;SDS011;38507;53.132;6.394;2024-01-30T08:46:01;19.25;;;11.63;;
52208;SDS011;38507;53.132;6.394;2024-01-30T08:48:28;17.33;;;11.02;;
52208;SDS011;38507;53.132;6.394;2024-01-30T08:50:54;20.27;;;11.38;;
52208;SDS011;38507;53.132;6.394;2024-01-30T08:53:19;20.02;;;11.80;;
52208;SDS011;38507;53.132;6.394;2024-01-30T08:55:45;18.40;;;11.13;;
52208;SDS011;38507;53.132;6.394;2024-01-30T08:58:11;24.55;;;11.50;;
52208;SDS011;38507;53.132;6.394;2024-01-30T09:00:37;20.98;;;11.25;;
52208;SDS011;38507;53.132;6.394;2024-01-30T09:03:03;20.05;;;11.07;;
52208;SDS011;38507;53.132;6.394;2024-01-30T09:05:38;18.13;;;11.43;;
52208;SDS011;38507;53.132;6.394;2024-01-30T09:08:04;18.27;;;11.55;;
52208;SDS011;38507;53.132;6.394;2024-01-30T09:10:30;20.10;;;11.45;;
52208;SDS011;38507;53.132;6.394;2024-01-30T09:12:55;18.65;;;10.82;;
52208;SDS011;38507;53.132;6.394;2024-01-30T09:15:21;17.05;;;10.35;;
52208;SDS011;38507;53.132;6.394;2024-01-30T09:17:47;17.10;;;11.48;;
52208;SDS011;38507;53.132;6.394;2024-01-30T09:20:12;16.35;;;11.63;;
52208;SDS011;38507;53.132;6.394;2024-01-30T09:22:38;18.77;;;12.10;;
52208;SDS011;38507;53.132;6.394;2024-01-30T09:25:04;22.52;;;11.52;;
52208;SDS011;38507;53.132;6.394;2024-01-30T09:27:29;21.13;;;11.45;;
52208;SDS011;38507;53.132;6.394;2024-01-30T09:29:56;23.13;;;11.73;;
52208;SDS011;38507;53.132;6.394;2024-01-30T09:32:21;16.52;;;11.10;;
52208;SDS011;38507;53.132;6.394;2024-01-30T09:34:47;20.42;;;10.82;;
52208;SDS011;38507;53.132;6.394;2024-01-30T09:37:12;21.85;;;11.43;;
52208;SDS011;38507;53.132;6.394;2024-01-30T09:39:40;18.55;;;11.43;;
52208;SDS011;38507;53.132;6.394;2024-01-30T09:44:58;23.88;;;12.25;;
52208;SDS011;38507;53.132;6.394;2024-01-30T09:47:23;20.58;;;10.68;;
52208;SDS011;38507;53.132;6.394;2024-01-30T09:49:49;18.73;;;11.32;;
52208;SDS011;38507;53.132;6.394;2024-01-30T09:52:16;17.40;;;11.57;;
52208;SDS011;38507;53.132;6.394;2024-01-30T09:54:43;23.98;;;11.68;;
52208;SDS011;38507;53.132;6.394;2024-01-30T09:57:11;18.90;;;11.50;;
52208;SDS011;38507;53.132;6.394;2024-01-30T09:59:37;20.17;;;11.38;;
52208;SDS011;38507;53.132;6.394;2024-01-30T10:02:03;18.35;;;11.73;;
52208;SDS011;38507;53.132;6.394;2024-01-30T10:04:29;23.20;;;12.05;;
52208;SDS011;38507;53.132;6.394;2024-01-30T10:06:55;23.48;;;11.70;;
52208;SDS011;38507;53.132;6.394;2024-01-30T10:09:21;20.48;;;11.52;;
52208;SDS011;38507;53.132;6.394;2024-01-30T10:11:48;20.30;;;11.15;;
52208;SDS011;38507;53.132;6.394;2024-01-30T10:14:14;17.35;;;11.20;;
52208;SDS011;38507;53.132;6.394;2024-01-30T10:16:40;18.92;;;11.48;;
52208;SDS011;38507;53.132;6.394;2024-01-30T10:19:06;21.38;;;11.55;;
52208;SDS011;38507;53.132;6.394;2024-01-30T10:21:31;24.13;;;12.20;;
52208;SDS011;38507;53.132;6.394;2024-01-30T10:23:57;23.30;;;12.10;;
52208;SDS011;38507;53.132;6.394;2024-01-30T10:26:23;22.50;;;11.73;;
52208;SDS011;38507;53.132;6.394;2024-01-30T10:28:48;20.35;;;11.88;;
52208;SDS011;38507;53.132;6.394;2024-01-30T10:31:18;19.67;;;11.40;;
52208;SDS011;38507;53.132;6.394;2024-01-30T10:33:44;15.50;;;11.32;;
52208;SDS011;38507;53.132;6.394;2024-01-30T10:36:10;21.23;;;11.63;;
52208;SDS011;38507;53.132;6.394;2024-01-30T10:38:38;23.13;;;10.82;;
52208;SDS011;38507;53.132;6.394;2024-01-30T10:41:08;22.48;;;11.75;;
52208;SDS011;38507;53.132;6.394;2024-01-30T10:43:42;17.48;;;12.30;;
52208;SDS011;38507;53.132;6.394;2024-01-30T10:46:18;25.30;;;11.65;;
52208;SDS011;38507;53.132;6.394;2024-01-30T10:48:46;17.88;;;10.20;;
52208;SDS011;38507;53.132;6.394;2024-01-30T10:51:18;18.35;;;11.73;;
52208;SDS011;38507;53.132;6.394;2024-01-30T10:53:45;21.85;;;11.70;;
52208;SDS011;38507;53.132;6.394;2024-01-30T10:56:11;20.55;;;11.02;;
52208;SDS011;38507;53.132;6.394;2024-01-30T10:58:38;24.20;;;11.40;;
52208;SDS011;38507;53.132;6.394;2024-01-30T11:01:04;19.52;;;11.25;;
52208;SDS011;38507;53.132;6.394;2024-01-30T11:03:31;20.48;;;10.70;;
52208;SDS011;38507;53.132;6.394;2024-01-30T11:06:00;17.48;;;11.60;;
52208;SDS011;38507;53.132;6.394;2024-01-30T11:08:26;20.40;;;10.30;;
52208;SDS011;38507;53.132;6.394;2024-01-30T11:10:57;17.85;;;8.88;;
52208;SDS011;38507;53.132;6.394;2024-01-30T11:13:29;25.13;;;9.88;;
52208;SDS011;38507;53.132;6.394;2024-01-30T11:16:02;16.50;;;8.75;;
52208;SDS011;38507;53.132;6.394;2024-01-30T11:20:58;14.93;;;6.53;;
52208;SDS011;38507;53.132;6.394;2024-01-30T11:23:27;17.38;;;7.60;;
52208;SDS011;38507;53.132;6.394;2024-01-30T11:25:53;16.15;;;6.82;;
52208;SDS011;38507;53.132;6.394;2024-01-30T11:28:20;25.33;;;7.50;;
52208;SDS011;38507;53.132;6.394;2024-01-30T11:30:47;15.30;;;5.85;;
52208;SDS011;38507;53.132;6.394;2024-01-30T11:33:15;19.75;;;5.25;;
52208;SDS011;38507;53.132;6.394;2024-01-30T11:35:52;9.90;;;3.70;;
52208;SDS011;38507;53.132;6.394;2024-01-30T11:38:18;11.10;;;3.63;;
52208;SDS011;38507;53.132;6.394;2024-01-30T11:40:44;11.20;;;3.83;;
52208;SDS011;38507;53.132;6.394;2024-01-30T11:43:10;12.00;;;3.00;;
52208;SDS011;38507;53.132;6.394;2024-01-30T11:45:37;8.38;;;2.38;;
52208;SDS011;38507;53.132;6.394;2024-01-30T11:48:04;9.88;;;2.50;;
52208;SDS011;38507;53.132;6.394;2024-01-30T11:50:30;6.45;;;2.50;;
52208;SDS011;38507;53.132;6.394;2024-01-30T11:52:57;5.70;;;2.00;;
52208;SDS011;38507;53.132;6.394;2024-01-30T11:55:24;10.13;;;2.10;;
52208;SDS011;38507;53.132;6.394;2024-01-30T11:57:50;8.23;;;1.83;;
52208;SDS011;38507;53.132;6.394;2024-01-30T12:00:19;5.55;;;1.70;;
52208;SDS011;38507;53.132;6.394;2024-01-30T12:02:52;4.60;;;1.40;;
52208;SDS011;38507;53.132;6.394;2024-01-30T12:05:22;3.78;;;1.00;;
52208;SDS011;38507;53.132;6.394;2024-01-30T12:07:49;4.47;;;0.85;;
52208;SDS011;38507;53.132;6.394;2024-01-30T12:10:15;3.88;;;0.90;;
52208;SDS011;38507;53.132;6.394;2024-01-30T12:12:41;5.22;;;0.70;;
52208;SDS011;38507;53.132;6.394;2024-01-30T12:15:09;2.63;;;0.73;;
52208;SDS011;38507;53.132;6.394;2024-01-30T12:17:35;4.38;;;0.95;;
52208;SDS011;38507;53.132;6.394;2024-01-30T12:20:08;3.70;;;1.00;;
52208;SDS011;38507;53.132;6.394;2024-01-30T12:22:41;5.88;;;1.27;;
52208;SDS011;38507;53.132;6.394;2024-01-30T12:25:08;4.03;;;0.80;;
52208;SDS011;38507;53.132;6.394;2024-01-30T12:27:34;3.85;;;0.90;;
52208;SDS011;38507;53.132;6.394;2024-01-30T12:30:05;1.75;;;0.43;;
52208;SDS011;38507;53.132;6.394;2024-01-30T12:32:33;1.42;;;0.50;;
52208;SDS011;38507;53.132;6.394;2024-01-30T12:35:11;2.35;;;0.50;;
52208;SDS011;38507;53.132;6.394;2024-01-30T12:37:38;3.65;;;0.70;;
52208;SDS011;38507;53.132;6.394;2024-01-30T12:40:07;3.40;;;0.63;;
52208;SDS011;38507;53.132;6.394;2024-01-30T12:42:34;3.33;;;0.40;;
52208;SDS011;38507;53.132;6.394;2024-01-30T12:45:01;3.88;;;0.75;;
52208;SDS011;38507;53.132;6.394;2024-01-30T12:47:28;2.42;;;0.70;;
52208;SDS011;38507;53.132;6.394;2024-01-30T12:49:54;4.18;;;0.80;;
52208;SDS011;38507;53.132;6.394;2024-01-30T12:52:20;3.42;;;0.65;;
52208;SDS011;38507;53.132;6.394;2024-01-30T12:54:47;4.22;;;0.65;;
52208;SDS011;38507;53.132;6.394;2024-01-30T12:57:13;3.03;;;0.90;;
52208;SDS011;38507;53.132;6.394;2024-01-30T12:59:39;3.40;;;0.80;;
52208;SDS011;38507;53.132;6.394;2024-01-30T13:02:05;2.90;;;0.80;;
52208;SDS011;38507;53.132;6.394;2024-01-30T13:04:31;1.98;;;0.73;;
52208;SDS011;38507;53.132;6.394;2024-01-30T13:06:58;2.85;;;0.75;;
52208;SDS011;38507;53.132;6.394;2024-01-30T13:09:25;4.00;;;1.05;;
52208;SDS011;38507;53.132;6.394;2024-01-30T13:11:51;4.07;;;1.05;;
52208;SDS011;38507;53.132;6.394;2024-01-30T13:14:17;3.67;;;0.80;;
52208;SDS011;38507;53.132;6.394;2024-01-30T13:16:43;3.25;;;0.90;;
52208;SDS011;38507;53.132;6.394;2024-01-30T13:19:08;4.57;;;0.80;;
52208;SDS011;38507;53.132;6.394;2024-01-30T13:21:34;5.45;;;1.08;;
52208;SDS011;38507;53.132;6.394;2024-01-30T13:24:00;4.90;;;0.73;;
52208;SDS011;38507;53.132;6.394;2024-01-30T13:26:25;3.72;;;0.60;;
52208;SDS011;38507;53.132;6.394;2024-01-30T13:28:51;6.38;;;0.93;;
52208;SDS011;38507;53.132;6.394;2024-01-30T13:31:17;3.80;;;0.90;;
52208;SDS011;38507;53.132;6.394;2024-01-30T13:33:44;4.15;;;0.88;;
52208;SDS011;38507;53.132;6.394;2024-01-30T13:36:10;5.53;;;0.55;;
52208;SDS011;38507;53.132;6.394;2024-01-30T13:38:36;2.55;;;0.60;;
52208;SDS011;38507;53.132;6.394;2024-01-30T13:41:02;3.72;;;0.70;;
52208;SDS011;38507;53.132;6.394;2024-01-30T13:43:28;5.72;;;0.77;;
52208;SDS011;38507;53.132;6.394;2024-01-30T13:45:54;4.28;;;0.80;;
52208;SDS011;38507;53.132;6.394;2024-01-30T13:48:20;2.92;;;0.68;;
52208;SDS011;38507;53.132;6.394;2024-01-30T13:50:46;2.08;;;0.57;;
52208;SDS011;38507;53.132;6.394;2024-01-30T13:53:12;2.65;;;0.60;;
52208;SDS011;38507;53.132;6.394;2024-01-30T13:55:39;2.22;;;0.90;;
52208;SDS011;38507;53.132;6.394;2024-01-30T13:58:04;6.03;;;1.10;;
52208;SDS011;38507;53.132;6.394;2024-01-30T14:00:30;4.82;;;0.80;;
52208;SDS011;38507;53.132;6.394;2024-01-30T14:02:57;2.33;;;0.57;;
52208;SDS011;38507;53.132;6.394;2024-01-30T14:05:24;5.55;;;0.60;;
52208;SDS011;38507;53.132;6.394;2024-01-30T14:07:50;1.17;;;0.50;;
52208;SDS011;38507;53.132;6.394;2024-01-30T14:10:20;4.35;;;1.10;;
52208;SDS011;38507;53.132;6.394;2024-01-30T14:12:46;3.50;;;0.85;;
52208;SDS011;38507;53.132;6.394;2024-01-30T14:15:13;2.55;;;0.80;;
52208;SDS011;38507;53.132;6.394;2024-01-30T14:17:40;3.75;;;1.13;;
52208;SDS011;38507;53.132;6.394;2024-01-30T14:20:06;4.50;;;1.33;;
52208;SDS011;38507;53.132;6.394;2024-01-30T14:22:33;5.40;;;1.40;;
52208;SDS011;38507;53.132;6.394;2024-01-30T14:24:58;7.13;;;1.40;;
52208;SDS011;38507;53.132;6.394;2024-01-30T14:27:24;6.97;;;1.60;;